createdAt,value
2019-05-06T00:00:59.228Z,81.86
2019-05-06T00:03:24.889Z,81.74
2019-05-06T00:05:54.357Z,82.41
2019-05-06T00:08:23.695Z,81.79
2019-05-06T00:10:54.274Z,81.87
2019-05-06T00:13:24.179Z,82.11
2019-05-06T00:15:54.349Z,82.83
2019-05-06T00:18:24.514Z,82.66
2019-05-06T00:20:57.216Z,82.43
2019-05-06T00:23:30.921Z,82.66
2019-05-06T00:26:06.908Z,82.56
2019-05-06T00:28:49.005Z,82.23
2019-05-06T00:31:19.069Z,82.89
2019-05-06T00:33:47.490Z,82.54
2019-05-06T00:36:17.455Z,83.11
2019-05-06T00:38:47.525Z,83.15
2019-05-06T00:41:31.273Z,83.24
2019-05-06T00:43:59.676Z,82.73
2019-05-06T00:46:28.103Z,83.33
2019-05-06T00:48:56.526Z,82.42
2019-05-06T00:51:25.411Z,82.40
2019-05-06T00:53:58.645Z,82.71
2019-05-06T00:56:27.082Z,82.99
2019-05-06T00:58:55.495Z,82.15
2019-05-06T01:01:29.262Z,82.48
2019-05-06T01:03:54.066Z,82.53
2019-05-06T01:06:24.559Z,82.43
2019-05-06T01:08:54.405Z,82.59
2019-05-06T01:11:23.856Z,82.45
2019-05-06T01:13:56.511Z,82.78
2019-05-06T01:16:25.061Z,82.77
2019-05-06T01:18:54.173Z,82.75
2019-05-06T01:21:23.823Z,83.38
2019-05-06T01:23:54.283Z,83.31
2019-05-06T01:26:24.238Z,83.55
2019-05-06T01:28:54.606Z,83.64
2019-05-06T01:31:26.019Z,83.57
2019-05-06T01:33:53.705Z,83.46
2019-05-06T01:36:22.081Z,83.44
2019-05-06T01:38:58.194Z,83.37
2019-05-06T01:41:39.954Z,83.45
2019-05-06T01:44:08.338Z,83.58
2019-05-06T01:46:36.780Z,83.50
2019-05-06T01:49:05.548Z,83.16
2019-05-06T01:51:34.780Z,83.75
2019-05-06T01:54:03.907Z,83.55
2019-05-06T01:56:33.703Z,83.18
2019-05-06T01:59:04.352Z,83.26
2019-05-06T02:01:34.082Z,83.22
2019-05-06T02:04:04.407Z,83.48
2019-05-06T02:06:34.334Z,83.04
2019-05-06T02:09:04.567Z,83.07
2019-05-06T02:11:33.706Z,83.14
2019-05-06T02:14:04.565Z,83.06
2019-05-06T02:16:34.321Z,83.43
2019-05-06T02:19:04.005Z,83.60
2019-05-06T02:21:34.357Z,83.55
2019-05-06T02:24:09.845Z,83.70
2019-05-06T02:26:38.293Z,83.41
2019-05-06T02:29:15.221Z,82.90
2019-05-06T02:32:19.849Z,82.97
2019-05-06T02:34:36.477Z,83.12
2019-05-06T02:37:06.835Z,82.90
2019-05-06T02:39:35.300Z,82.67
2019-05-06T02:42:05.493Z,82.28
2019-05-06T02:44:33.935Z,83.04
2019-05-06T02:47:04.257Z,83.36
2019-05-06T02:49:34.347Z,83.19
2019-05-06T02:52:03.211Z,83.13
2019-05-06T02:54:34.553Z,82.94
2019-05-06T02:57:04.151Z,82.35
2019-05-06T02:59:33.158Z,82.06
2019-05-06T03:02:03.309Z,82.02
2019-05-06T03:04:33.294Z,82.90
2019-05-06T03:07:03.630Z,82.74
2019-05-06T03:09:33.934Z,83.19
2019-05-06T03:12:03.540Z,83.11
2019-05-06T03:14:34.594Z,83.01
2019-05-06T03:17:03.585Z,82.66
2019-05-06T03:19:34.263Z,83.40
2019-05-06T03:22:04.419Z,83.71
2019-05-06T03:24:34.530Z,83.31
2019-05-06T03:27:04.514Z,83.50
2019-05-06T03:29:33.576Z,83.69
2019-05-06T03:32:07.271Z,83.41
2019-05-06T03:34:52.426Z,84.17
2019-05-06T03:37:07.836Z,83.50
2019-05-06T03:39:33.788Z,83.90
2019-05-06T03:42:04.671Z,84.23
2019-05-06T03:44:33.783Z,84.19
2019-05-06T03:47:19.016Z,84.25
2019-05-06T03:49:54.594Z,84.41
2019-05-06T03:52:23.263Z,84.52
2019-05-06T03:54:53.712Z,84.08
2019-05-06T03:57:23.979Z,84.40
2019-05-06T03:59:53.395Z,84.73
2019-05-06T04:02:24.147Z,84.77
2019-05-06T04:04:55.721Z,85.10
2019-05-06T04:07:23.368Z,85.27
2019-05-06T04:09:53.652Z,84.37
2019-05-06T04:12:23.635Z,84.52
2019-05-06T04:14:54.043Z,84.25
2019-05-06T04:17:32.882Z,84.89
2019-05-06T04:20:13.357Z,83.43
2019-05-06T04:22:46.416Z,83.74
2019-05-06T04:25:19.526Z,82.93
2019-05-06T04:27:50.335Z,83.34
2019-05-06T04:30:18.867Z,83.09
2019-05-06T04:32:47.405Z,83.32
2019-05-06T04:35:15.920Z,83.88
2019-05-06T04:37:44.322Z,83.88
2019-05-06T04:40:13.386Z,83.98
2019-05-06T04:42:44.470Z,83.45
2019-05-06T04:45:16.858Z,83.41
2019-05-06T04:47:43.546Z,83.71
2019-05-06T04:50:13.214Z,83.75
2019-05-06T04:52:43.371Z,84.17
2019-05-06T04:55:13.988Z,83.98
2019-05-06T04:57:44.069Z,83.73
2019-05-06T05:00:13.380Z,82.85
2019-05-06T05:02:45.933Z,83.36
2019-05-06T05:05:13.836Z,83.34
2019-05-06T05:07:42.641Z,82.60
2019-05-06T05:10:12.942Z,82.88
2019-05-06T05:12:43.697Z,82.63
2019-05-06T05:15:13.030Z,82.63
2019-05-06T05:17:45.856Z,82.46
2019-05-06T05:20:14.837Z,82.68
2019-05-06T05:22:43.323Z,81.10
2019-05-06T05:25:12.270Z,80.29
2019-05-06T05:27:42.126Z,79.58
2019-05-06T05:30:12.502Z,79.13
2019-05-06T05:32:42.841Z,79.39
2019-05-06T05:35:12.732Z,80.46
2019-05-06T05:37:41.942Z,80.21
2019-05-06T05:40:12.794Z,78.78
2019-05-06T05:42:54.526Z,79.56
2019-05-06T05:45:22.950Z,79.36
2019-05-06T05:47:54.308Z,80.46
2019-05-06T05:50:32.358Z,79.71
2019-05-06T05:53:02.447Z,79.30
2019-05-06T05:55:33.027Z,78.91
2019-05-06T05:58:03.227Z,78.83
2019-05-06T06:00:33.019Z,78.62
2019-05-06T06:03:02.915Z,78.43
2019-05-06T06:05:32.963Z,76.56
2019-05-06T06:08:02.908Z,76.73
2019-05-06T06:10:33.319Z,76.37
2019-05-06T06:13:02.177Z,78.18
2019-05-06T06:15:48.577Z,76.23
2019-05-06T06:18:24.564Z,76.83
2019-05-06T06:20:57.684Z,75.68
2019-05-06T06:23:28.106Z,75.09
2019-05-06T06:25:56.574Z,74.11
2019-05-06T06:28:25.008Z,73.30
2019-05-06T06:31:03.814Z,72.96
2019-05-06T06:33:32.987Z,74.29
2019-05-06T06:36:03.278Z,72.63
2019-05-06T06:38:48.617Z,71.95
2019-05-06T06:41:17.149Z,71.71
2019-05-06T06:43:47.212Z,72.09
2019-05-06T06:46:15.828Z,71.00
2019-05-06T06:48:44.383Z,70.48
2019-05-06T06:51:12.847Z,71.84
2019-05-06T06:53:43.487Z,72.02
2019-05-06T06:56:22.354Z,69.64
2019-05-06T06:58:52.580Z,70.09
2019-05-06T07:01:23.556Z,69.32
2019-05-06T07:03:54.198Z,70.27
2019-05-06T07:06:25.342Z,70.78
2019-05-06T07:08:53.745Z,71.37
2019-05-06T07:11:22.644Z,71.72
2019-05-06T07:13:53.200Z,71.32
2019-05-06T07:16:23.538Z,71.00
2019-05-06T07:18:52.590Z,72.30
2019-05-06T07:21:22.868Z,70.88
2019-05-06T07:23:52.990Z,70.02
2019-05-06T07:26:25.688Z,70.02
2019-05-06T07:28:55.807Z,70.19
2019-05-06T07:31:26.713Z,69.94
2019-05-06T07:33:54.476Z,70.90
2019-05-06T07:36:23.016Z,67.34
2019-05-06T07:38:52.796Z,67.01
2019-05-06T07:41:23.570Z,68.68
2019-05-06T07:43:56.714Z,69.83
2019-05-06T07:46:29.824Z,68.22
2019-05-06T07:48:58.257Z,68.94
2019-05-06T07:51:26.687Z,68.10
2019-05-06T07:53:55.131Z,67.15
2019-05-06T07:56:23.562Z,68.67
2019-05-06T07:58:53.662Z,68.43
2019-05-06T08:01:25.963Z,68.46
2019-05-06T08:03:53.922Z,65.33
2019-05-06T08:06:22.795Z,65.78
2019-05-06T08:08:53.655Z,64.95
2019-05-06T08:11:22.308Z,64.88
2019-05-06T08:13:52.741Z,65.90
2019-05-06T08:16:23.127Z,65.57
2019-05-06T08:18:52.525Z,64.12
2019-05-06T08:21:23.532Z,64.73
2019-05-06T08:23:55.036Z,63.80
2019-05-06T08:26:23.478Z,62.54
2019-05-06T08:28:52.627Z,63.11
2019-05-06T08:31:22.571Z,64.67
2019-05-06T08:33:52.771Z,64.85
2019-05-06T08:36:34.756Z,61.22
2019-05-06T08:39:04.923Z,63.58
2019-05-06T08:41:33.425Z,64.65
2019-05-06T08:44:02.700Z,63.46
2019-05-06T08:46:32.747Z,61.71
2019-05-06T08:49:03.101Z,60.19
2019-05-06T08:51:44.582Z,59.20
2019-05-06T08:54:23.871Z,58.57
2019-05-06T08:56:53.553Z,56.87
2019-05-06T08:59:24.051Z,58.38
2019-05-06T09:01:55.761Z,57.47
2019-05-06T09:04:24.270Z,57.78
2019-05-06T09:06:53.555Z,57.29
2019-05-06T09:09:22.523Z,56.86
2019-05-06T09:11:53.263Z,58.71
2019-05-06T09:14:23.210Z,57.40
2019-05-06T09:16:53.872Z,56.39
2019-05-06T09:19:23.282Z,52.83
2019-05-06T09:21:53.371Z,53.43
2019-05-06T09:24:23.097Z,53.66
2019-05-06T09:26:54.407Z,51.88
2019-05-06T09:29:33.353Z,52.07
2019-05-06T09:32:18.464Z,50.67
2019-05-06T09:34:48.546Z,51.86
2019-05-06T09:37:18.441Z,52.02
2019-05-06T09:39:47.643Z,55.16
2019-05-06T09:42:16.338Z,52.34
2019-05-06T09:44:50.054Z,51.11
2019-05-06T09:47:25.392Z,52.93
2019-05-06T09:49:53.839Z,50.48
2019-05-06T09:52:23.173Z,49.66
2019-05-06T09:55:05.754Z,48.74
2019-05-06T09:57:52.385Z,51.39
2019-05-06T10:00:23.505Z,48.20
2019-05-06T10:02:52.731Z,47.88
2019-05-06T10:05:21.757Z,48.73
2019-05-06T10:07:52.276Z,49.26
2019-05-06T10:10:22.317Z,48.00
2019-05-06T10:12:52.873Z,45.77
2019-05-06T10:15:22.030Z,50.57
2019-05-06T10:18:09.179Z,46.53
2019-05-06T10:20:42.721Z,46.73
2019-05-06T10:23:10.951Z,47.81
2019-05-06T10:25:39.768Z,47.78
2019-05-06T10:28:13.296Z,47.15
2019-05-06T10:30:42.785Z,46.58
2019-05-06T10:33:12.872Z,47.80
2019-05-06T10:35:42.855Z,46.08
2019-05-06T10:38:25.551Z,49.50
2019-05-06T10:41:06.702Z,48.46
2019-05-06T10:43:38.938Z,46.90
2019-05-06T10:46:07.439Z,47.86
2019-05-06T10:48:35.889Z,48.61
2019-05-06T10:51:25.080Z,51.18
2019-05-06T10:53:53.570Z,48.68
2019-05-06T10:56:29.453Z,50.25
2019-05-06T10:59:03.455Z,49.30
2019-05-06T11:01:33.577Z,50.44
2019-05-06T11:04:03.275Z,49.63
2019-05-06T11:06:33.668Z,46.86
2019-05-06T11:09:03.766Z,46.58
2019-05-06T11:11:38.162Z,44.17
2019-05-06T11:14:03.062Z,43.91
2019-05-06T11:16:33.311Z,43.08
2019-05-06T11:19:05.186Z,44.97
2019-05-06T11:21:33.710Z,46.18
2019-05-06T11:24:06.029Z,45.45
2019-05-06T11:26:32.332Z,45.54
2019-05-06T11:29:06.341Z,44.44
2019-05-06T11:31:43.079Z,44.21
2019-05-06T11:34:22.200Z,40.76
2019-05-06T11:37:08.601Z,42.10
2019-05-06T11:39:37.055Z,42.65
2019-05-06T11:42:25.113Z,41.73
2019-05-06T11:44:37.218Z,42.47
2019-05-06T11:47:06.732Z,42.57
2019-05-06T11:49:35.173Z,42.38
2019-05-06T11:52:04.866Z,43.18
2019-05-06T11:54:33.905Z,42.53
2019-05-06T11:57:03.420Z,44.37
2019-05-06T11:59:33.397Z,42.65
2019-05-06T12:02:03.466Z,38.99
2019-05-06T12:04:32.892Z,40.22
2019-05-06T12:07:10.344Z,40.59
2019-05-06T12:09:33.089Z,42.01
2019-05-06T12:12:03.267Z,40.90
2019-05-06T12:14:32.006Z,41.57
2019-05-06T12:17:02.209Z,40.51
2019-05-06T12:19:32.443Z,38.18
2019-05-06T12:22:02.040Z,40.37
2019-05-06T12:24:30.476Z,39.93
2019-05-06T12:26:58.924Z,41.53
2019-05-06T12:29:27.360Z,41.70
2019-05-06T12:31:57.464Z,43.72
2019-05-06T12:34:26.069Z,42.14
2019-05-06T12:36:56.160Z,40.98
2019-05-06T12:39:26.276Z,41.55
2019-05-06T12:42:08.401Z,42.04
2019-05-06T12:44:38.474Z,41.15
2019-05-06T12:47:23.292Z,41.56
2019-05-06T12:49:53.314Z,41.54
2019-05-06T12:52:23.268Z,40.19
2019-05-06T12:54:54.239Z,39.81
2019-05-06T12:57:23.434Z,40.90
2019-05-06T12:59:53.004Z,37.23
2019-05-06T13:02:23.837Z,33.79
2019-05-06T13:04:59.632Z,34.03
2019-05-06T13:07:24.308Z,34.04
2019-05-06T13:09:53.025Z,35.38
2019-05-06T13:12:23.343Z,34.14
2019-05-06T13:14:52.677Z,33.72
2019-05-06T13:17:23.016Z,33.31
2019-05-06T13:19:52.336Z,35.60
2019-05-06T13:22:28.459Z,35.05
2019-05-06T13:24:56.909Z,35.15
2019-05-06T13:27:27.419Z,35.69
2019-05-06T13:29:55.586Z,35.15
2019-05-06T13:32:25.672Z,35.12
2019-05-06T13:34:54.103Z,36.99
2019-05-06T13:37:24.246Z,36.85
2019-05-06T13:39:53.102Z,37.79
2019-05-06T13:42:23.329Z,38.36
2019-05-06T13:44:51.782Z,38.80
2019-05-06T13:47:38.221Z,41.15
2019-05-06T13:50:07.669Z,41.52
2019-05-06T13:52:37.807Z,40.04
2019-05-06T13:55:09.166Z,40.55
2019-05-06T13:57:39.466Z,41.54
2019-05-06T14:00:08.528Z,43.08
2019-05-06T14:02:44.744Z,44.42
2019-05-06T14:05:14.511Z,44.70
2019-05-06T14:07:43.467Z,44.66
2019-05-06T14:10:13.171Z,44.57
2019-05-06T14:12:42.823Z,43.85
2019-05-06T14:15:12.602Z,44.62
2019-05-06T14:17:42.370Z,44.63
2019-05-06T14:20:12.483Z,46.99
2019-05-06T14:22:43.766Z,47.72
2019-05-06T14:25:19.175Z,45.50
2019-05-06T14:27:49.328Z,45.39
2019-05-06T14:30:37.219Z,45.23
2019-05-06T14:33:05.713Z,45.64
2019-05-06T14:35:34.175Z,46.66
2019-05-06T14:38:03.287Z,47.38
2019-05-06T14:40:33.546Z,48.78
2019-05-06T14:43:02.663Z,49.71
2019-05-06T14:45:33.255Z,50.84
2019-05-06T14:48:01.790Z,53.79
2019-05-06T14:50:43.166Z,51.11
2019-05-06T14:53:02.633Z,51.12
2019-05-06T14:55:32.804Z,49.67
2019-05-06T14:58:04.319Z,48.11
2019-05-06T15:00:31.976Z,49.72
2019-05-06T15:03:02.220Z,48.23
2019-05-06T15:05:32.554Z,52.62
2019-05-06T15:08:01.973Z,55.65
2019-05-06T15:10:32.291Z,57.39
2019-05-06T15:13:02.119Z,57.39
2019-05-06T15:15:32.397Z,55.40
2019-05-06T15:18:02.875Z,55.09
2019-05-06T15:20:34.133Z,54.14
2019-05-06T15:23:04.294Z,56.21
2019-05-06T15:25:32.682Z,53.68
2019-05-06T15:28:02.496Z,55.22
2019-05-06T15:30:34.065Z,60.32
2019-05-06T15:33:02.692Z,62.41
2019-05-06T15:35:33.174Z,59.53
2019-05-06T15:38:03.276Z,59.77
2019-05-06T15:40:35.990Z,60.16
2019-05-06T15:43:02.262Z,61.03
2019-05-06T15:45:32.480Z,58.76
2019-05-06T15:48:02.633Z,58.02
2019-05-06T15:50:32.458Z,59.99
2019-05-06T15:53:02.007Z,61.22
2019-05-06T15:55:32.616Z,61.59
2019-05-06T15:58:03.256Z,60.79
2019-05-06T16:00:33.059Z,61.00
2019-05-06T16:03:01.169Z,65.00
2019-05-06T16:05:31.077Z,66.12
2019-05-06T16:07:59.783Z,67.72
2019-05-06T16:10:28.198Z,69.21
2019-05-06T16:12:56.652Z,72.86
2019-05-06T16:15:26.599Z,72.83
2019-05-06T16:17:55.023Z,78.34
2019-05-06T16:20:24.350Z,72.72
2019-05-06T16:22:54.431Z,79.11
2019-05-06T16:25:22.861Z,78.77
2019-05-06T16:27:54.589Z,78.11
2019-05-06T16:30:24.528Z,81.22
2019-05-06T16:32:53.162Z,79.37
2019-05-06T16:35:22.884Z,80.50
2019-05-06T16:37:51.428Z,75.25
2019-05-06T16:40:20.198Z,76.48
2019-05-06T16:42:48.630Z,77.12
2019-05-06T16:45:18.869Z,78.52
2019-05-06T16:47:47.542Z,75.71
2019-05-06T16:50:36.774Z,80.67
2019-05-06T16:53:05.225Z,75.48
2019-05-06T16:55:55.597Z,74.67
2019-05-06T16:58:27.855Z,77.05
2019-05-06T17:00:56.280Z,75.50
2019-05-06T17:03:42.818Z,81.19
2019-05-06T17:06:19.104Z,79.42
2019-05-06T17:08:47.601Z,79.20
2019-05-06T17:11:26.978Z,79.97
2019-05-06T17:13:46.151Z,77.62
2019-05-06T17:16:14.573Z,80.73
2019-05-06T17:18:42.993Z,80.44
2019-05-06T17:21:13.164Z,80.12
2019-05-06T17:23:42.315Z,78.51
2019-05-06T17:26:12.733Z,78.73
2019-05-06T17:28:42.670Z,76.19
2019-05-06T17:31:24.326Z,75.43
2019-05-06T17:33:54.471Z,76.75
2019-05-06T17:36:27.168Z,76.08
2019-05-06T17:39:10.742Z,76.73
2019-05-06T17:41:46.094Z,75.96
2019-05-06T17:44:12.027Z,76.74
2019-05-06T17:46:42.724Z,75.54
2019-05-06T17:49:20.936Z,76.44
2019-05-06T17:51:56.760Z,76.37
2019-05-06T17:54:25.920Z,77.78
2019-05-06T17:56:54.569Z,76.50
2019-05-06T17:59:23.019Z,77.58
2019-05-06T18:01:53.291Z,76.80
2019-05-06T18:04:22.785Z,77.71
2019-05-06T18:06:52.625Z,77.60
2019-05-06T18:09:22.357Z,79.76
2019-05-06T18:11:58.276Z,82.90
2019-05-06T18:14:23.003Z,79.92
2019-05-06T18:16:53.606Z,79.23
2019-05-06T18:19:22.304Z,77.93
2019-05-06T18:21:52.803Z,78.93
2019-05-06T18:24:22.914Z,80.64
2019-05-06T18:26:52.835Z,79.20
2019-05-06T18:29:22.205Z,79.91
2019-05-06T18:31:52.511Z,79.04
2019-05-06T18:34:23.039Z,82.53
2019-05-06T18:36:52.493Z,80.88
2019-05-06T18:39:22.340Z,81.84
2019-05-06T18:41:53.069Z,82.02
2019-05-06T18:44:22.746Z,82.54
2019-05-06T18:46:53.055Z,82.24
2019-05-06T18:49:22.199Z,81.11
2019-05-06T18:51:52.033Z,81.10
2019-05-06T18:54:22.095Z,82.23
2019-05-06T18:56:52.177Z,83.14
2019-05-06T18:59:22.985Z,82.27
2019-05-06T19:01:50.936Z,81.11
2019-05-06T19:04:26.716Z,81.49
2019-05-06T19:07:09.288Z,81.93
2019-05-06T19:09:29.735Z,81.95
2019-05-06T19:11:58.240Z,80.97
2019-05-06T19:14:26.652Z,81.63
2019-05-06T19:16:55.436Z,81.20
2019-05-06T19:19:23.907Z,82.88
2019-05-06T19:21:52.596Z,84.02
2019-05-06T19:24:22.682Z,85.23
2019-05-06T19:26:52.749Z,85.12
2019-05-06T19:29:23.247Z,84.52
2019-05-06T19:31:52.198Z,85.07
2019-05-06T19:34:20.631Z,84.19
2019-05-06T19:36:49.079Z,84.44
2019-05-06T19:39:17.490Z,84.33
2019-05-06T19:41:45.933Z,83.90
2019-05-06T19:44:14.352Z,83.67
2019-05-06T19:46:42.810Z,85.09
2019-05-06T19:49:11.247Z,84.54
2019-05-06T19:51:42.804Z,85.03
2019-05-06T19:54:12.664Z,85.46
2019-05-06T19:56:42.493Z,85.33
2019-05-06T19:59:12.889Z,83.53
2019-05-06T20:01:42.939Z,83.87
2019-05-06T20:04:13.172Z,85.13
2019-05-06T20:06:44.926Z,85.12
2019-05-06T20:09:30.278Z,86.90
2019-05-06T20:12:06.103Z,86.15
2019-05-06T20:14:34.510Z,84.98
2019-05-06T20:17:03.737Z,81.44
2019-05-06T20:19:33.908Z,82.04
2019-05-06T20:22:02.580Z,80.09
2019-05-06T20:24:33.074Z,80.81
2019-05-06T20:27:02.402Z,81.16
2019-05-06T20:29:32.983Z,80.15
2019-05-06T20:32:01.101Z,82.00
2019-05-06T20:34:29.515Z,80.34
2019-05-06T20:36:57.951Z,81.30
2019-05-06T20:39:26.399Z,82.81
2019-05-06T20:41:54.823Z,83.56
2019-05-06T20:44:23.245Z,84.47
2019-05-06T20:46:52.719Z,85.03
2019-05-06T20:49:21.196Z,84.91
2019-05-06T20:51:51.962Z,84.93
2019-05-06T20:54:19.774Z,86.90
2019-05-06T20:56:48.225Z,86.75
2019-05-06T20:59:16.634Z,86.60
2019-05-06T21:01:46.286Z,87.53
2019-05-06T21:04:14.721Z,87.33
2019-05-06T21:06:43.156Z,88.62
2019-05-06T21:09:12.465Z,89.12
2019-05-06T21:11:42.127Z,89.04
2019-05-06T21:14:13.052Z,87.89
2019-05-06T21:16:42.274Z,88.95
2019-05-06T21:19:12.630Z,87.27
2019-05-06T21:21:43.229Z,87.79
2019-05-06T21:24:13.034Z,88.69
2019-05-06T21:26:42.906Z,90.08
2019-05-06T21:29:12.794Z,91.35
2019-05-06T21:31:42.271Z,89.58
2019-05-06T21:34:12.665Z,88.21
2019-05-06T21:36:42.263Z,88.75
2019-05-06T21:39:13.044Z,87.66
2019-05-06T21:41:42.749Z,89.04
2019-05-06T21:44:13.269Z,88.83
2019-05-06T21:46:42.925Z,89.28
2019-05-06T21:49:12.105Z,89.34
2019-05-06T21:51:42.568Z,84.76
2019-05-06T21:54:12.544Z,88.35
2019-05-06T21:56:42.411Z,88.98
2019-05-06T21:59:12.963Z,90.20
2019-05-06T22:01:42.968Z,90.25
2019-05-06T22:04:12.771Z,90.69
2019-05-06T22:06:45.507Z,90.98
2019-05-06T22:09:13.460Z,89.88
2019-05-06T22:11:42.458Z,88.62
2019-05-06T22:14:12.315Z,89.59
2019-05-06T22:16:44.008Z,90.11
2019-05-06T22:19:12.450Z,88.12
2019-05-06T22:22:00.530Z,89.57
2019-05-06T22:24:46.720Z,88.52
2019-05-06T22:27:16.012Z,90.03
2019-05-06T22:29:44.431Z,90.58
2019-05-06T22:32:15.030Z,90.98
2019-05-06T22:34:43.114Z,90.63
2019-05-06T22:37:12.524Z,90.88
2019-05-06T22:39:43.577Z,91.06
2019-05-06T22:42:11.366Z,91.32
2019-05-06T22:44:46.084Z,90.71
2019-05-06T22:47:15.135Z,90.93
2019-05-06T22:49:43.541Z,90.89
2019-05-06T22:52:12.663Z,89.24
2019-05-06T22:54:43.166Z,90.65
2019-05-06T22:57:12.050Z,91.04
2019-05-06T22:59:42.573Z,91.28
2019-05-06T23:02:15.536Z,91.96
2019-05-06T23:04:45.612Z,92.34
2019-05-06T23:07:14.330Z,89.79
2019-05-06T23:09:43.038Z,88.03
2019-05-06T23:12:12.320Z,88.68
2019-05-06T23:14:42.084Z,90.85
2019-05-06T23:17:12.736Z,89.60
2019-05-06T23:19:42.617Z,91.68
2019-05-06T23:22:12.091Z,89.50
2019-05-06T23:24:40.644Z,88.48
2019-05-06T23:27:09.072Z,90.83
2019-05-06T23:29:37.526Z,91.75
2019-05-06T23:32:05.980Z,92.71
2019-05-06T23:34:34.431Z,92.08
2019-05-06T23:37:08.533Z,91.64
2019-05-06T23:40:15.146Z,91.20
2019-05-06T23:43:19.677Z,89.43
2019-05-06T23:46:24.394Z,91.86
2019-05-06T23:49:29.059Z,89.44
2019-05-06T23:52:33.605Z,90.56
2019-05-06T23:55:38.117Z,89.30
2019-05-06T23:58:05.402Z,88.92
